Time;durP1;ratioP1;P1;durP2;ratioP2;P2;SDS_P1;SDS_P2;PMS_P1;PMS_P2;Temp;Humidity;BMP_temperature;BMP_pressure;BME280_temperature;BME280_humidity;BME280_pressure;Samples;Min_cycle;Max_cycle;Signal;HPM_P1;HPM_P2
2023/12/02 00:00:43;;;;;;;4.97;4.47;;;;;;;;;;5114688;28;20781;-87
2023/12/02 00:03:10;;;;;;;5.90;4.57;;;;;;;;;;5115664;28;20294;-87
2023/12/02 00:05:39;;;;;;;3.63;3.43;;;;;;;;;;5114272;28;20239;-87
2023/12/02 00:08:06;;;;;;;5.00;4.40;;;;;;;;;;5115032;28;20252;-87
2023/12/02 00:10:33;;;;;;;4.60;4.20;;;;;;;;;;5113811;28;20228;-86
2023/12/02 00:13:00;;;;;;;5.33;4.77;;;;;;;;;;5115131;28;20202;-87
2023/12/02 00:15:27;;;;;;;4.47;4.07;;;;;;;;;;5113831;28;20237;-87
2023/12/02 00:17:54;;;;;;;6.57;4.97;;;;;;;;;;5114947;28;20205;-87
2023/12/02 00:20:21;;;;;;;3.47;3.27;;;;;;;;;;5113873;28;20590;-87
2023/12/02 00:22:49;;;;;;;5.73;5.23;;;;;;;;;;5114569;28;20659;-88
2023/12/02 00:25:16;;;;;;;7.57;4.67;;;;;;;;;;5114248;28;20239;-88
2023/12/02 00:27:43;;;;;;;5.57;5.00;;;;;;;;;;5115123;28;20276;-87
2023/12/02 00:30:11;;;;;;;6.77;5.40;;;;;;;;;;5109912;28;20196;-87
2023/12/02 00:32:38;;;;;;;5.23;4.37;;;;;;;;;;5098231;28;20212;-87
2023/12/02 00:35:05;;;;;;;5.70;5.20;;;;;;;;;;5114529;28;20256;-87
2023/12/02 00:37:33;;;;;;;7.07;5.33;;;;;;;;;;5114698;28;20217;-87
2023/12/02 00:40:01;;;;;;;5.50;5.07;;;;;;;;;;5114250;28;20206;-87
2023/12/02 00:42:28;;;;;;;4.90;3.70;;;;;;;;;;5114084;28;20269;-87
2023/12/02 00:44:55;;;;;;;6.57;5.20;;;;;;;;;;5114509;28;20207;-87
2023/12/02 00:47:23;;;;;;;5.03;4.53;;;;;;;;;;5113675;28;20288;-87
2023/12/02 00:49:50;;;;;;;4.83;4.30;;;;;;;;;;5113939;28;20204;-87
2023/12/02 00:52:17;;;;;;;6.20;5.60;;;;;;;;;;5113468;28;20227;-87
2023/12/02 00:54:44;;;;;;;6.77;5.37;;;;;;;;;;5113654;28;20214;-87
2023/12/02 00:57:12;;;;;;;8.73;5.57;;;;;;;;;;5113349;28;20239;-88
2023/12/02 00:59:39;;;;;;;5.07;4.60;;;;;;;;;;5093189;28;20666;-88
2023/12/02 01:02:07;;;;;;;6.57;5.70;;;;;;;;;;5107715;28;20283;-87
2023/12/02 01:04:34;;;;;;;8.00;5.33;;;;;;;;;;5113632;28;20204;-87
2023/12/02 01:07:01;;;;;;;6.00;5.37;;;;;;;;;;5111547;28;20237;-87
2023/12/02 01:09:28;;;;;;;6.27;5.20;;;;;;;;;;5113609;28;20210;-87
2023/12/02 01:11:55;;;;;;;6.03;4.90;;;;;;;;;;5112854;28;20239;-87
2023/12/02 01:14:25;;;;;;;6.57;5.57;;;;;;;;;;5113684;28;20540;-88
2023/12/02 01:16:52;;;;;;;5.30;4.90;;;;;;;;;;5112623;28;20314;-87
2023/12/02 01:19:19;;;;;;;4.97;4.47;;;;;;;;;;5113472;28;20723;-87
2023/12/02 01:21:46;;;;;;;5.83;5.23;;;;;;;;;;5112616;28;20727;-87
2023/12/02 01:24:13;;;;;;;6.47;5.17;;;;;;;;;;5113084;28;20200;-87
2023/12/02 01:26:40;;;;;;;6.83;5.50;;;;;;;;;;5112436;28;20235;-87
2023/12/02 01:29:07;;;;;;;7.13;5.50;;;;;;;;;;5113416;28;20200;-87
2023/12/02 01:31:36;;;;;;;5.33;4.80;;;;;;;;;;5112774;28;20238;-87
2023/12/02 01:34:03;;;;;;;4.53;4.13;;;;;;;;;;5113462;28;20209;-87
2023/12/02 01:36:30;;;;;;;8.23;5.47;;;;;;;;;;5112140;28;20232;-87
2023/12/02 01:38:57;;;;;;;6.37;4.77;;;;;;;;;;5112843;28;20206;-88
2023/12/02 01:41:24;;;;;;;6.93;5.47;;;;;;;;;;5111821;28;20231;-88
2023/12/02 01:43:51;;;;;;;6.30;5.70;;;;;;;;;;5113092;28;20314;-87
2023/12/02 01:46:18;;;;;;;6.13;4.97;;;;;;;;;;5112051;28;20659;-88
2023/12/02 01:48:46;;;;;;;5.70;5.13;;;;;;;;;;5112601;28;20244;-87
2023/12/02 01:51:14;;;;;;;6.40;5.33;;;;;;;;;;5111928;28;20745;-87
2023/12/02 01:53:41;;;;;;;6.30;5.70;;;;;;;;;;5112587;28;20711;-88
2023/12/02 01:56:09;;;;;;;4.97;4.57;;;;;;;;;;5111550;28;20321;-88
2023/12/02 01:58:36;;;;;;;6.10;4.77;;;;;;;;;;5107489;28;20271;-87
2023/12/02 02:01:05;;;;;;;5.33;4.83;;;;;;;;;;5111886;28;20239;-87
2023/12/02 02:03:33;;;;;;;6.87;4.80;;;;;;;;;;5106453;28;20210;-88
2023/12/02 02:06:01;;;;;;;7.00;5.03;;;;;;;;;;5094860;28;20236;-87
2023/12/02 02:08:30;;;;;;;7.23;5.80;;;;;;;;;;5105761;28;20207;-88
2023/12/02 02:10:58;;;;;;;6.60;4.57;;;;;;;;;;5111960;28;20231;-88
2023/12/02 02:13:25;;;;;;;6.30;5.17;;;;;;;;;;5112920;28;20222;-87
2023/12/02 02:15:52;;;;;;;6.97;5.50;;;;;;;;;;5111891;28;20573;-87
2023/12/02 02:18:19;;;;;;;6.90;4.50;;;;;;;;;;5112784;28;20207;-87
2023/12/02 02:20:51;;;;;;;6.10;5.37;;;;;;;;;;5112151;28;20242;-87
2023/12/02 02:23:20;;;;;;;5.40;4.73;;;;;;;;;;5112667;28;20658;-87
2023/12/02 02:25:47;;;;;;;6.10;5.20;;;;;;;;;;5111524;28;20704;-87
2023/12/02 02:28:14;;;;;;;4.13;3.83;;;;;;;;;;5107780;28;20200;-88
2023/12/02 02:30:41;;;;;;;7.67;5.67;;;;;;;;;;5111539;28;20242;-87
2023/12/02 02:33:08;;;;;;;7.00;4.70;;;;;;;;;;5112103;28;20696;-87
2023/12/02 02:35:35;;;;;;;5.27;4.60;;;;;;;;;;5111475;28;20238;-87
2023/12/02 02:38:02;;;;;;;5.80;4.37;;;;;;;;;;5111944;28;20229;-87
2023/12/02 02:40:30;;;;;;;5.47;4.60;;;;;;;;;;5110986;28;20236;-87
2023/12/02 02:42:57;;;;;;;6.00;4.67;;;;;;;;;;5111874;28;20204;-87
2023/12/02 02:45:24;;;;;;;5.60;4.50;;;;;;;;;;5111303;28;20239;-88
2023/12/02 02:47:51;;;;;;;5.43;4.03;;;;;;;;;;5111682;28;20226;-87
2023/12/02 02:50:18;;;;;;;5.77;4.33;;;;;;;;;;5105501;28;20211;-88
2023/12/02 02:52:46;;;;;;;5.47;4.03;;;;;;;;;;5100996;28;20199;-87
2023/12/02 02:55:13;;;;;;;4.60;4.00;;;;;;;;;;5115178;28;20218;-87
2023/12/02 02:57:41;;;;;;;4.80;4.40;;;;;;;;;;5116190;28;20213;-87
2023/12/02 03:00:09;;;;;;;6.50;4.97;;;;;;;;;;5115354;27;20220;-87
2023/12/02 03:02:37;;;;;;;6.63;5.00;;;;;;;;;;5115853;28;20733;-87
2023/12/02 03:05:05;;;;;;;6.33;4.80;;;;;;;;;;5115452;28;20207;-87
2023/12/02 03:07:32;;;;;;;6.13;4.60;;;;;;;;;;5115962;28;20222;-87
2023/12/02 03:09:59;;;;;;;5.63;4.87;;;;;;;;;;5115716;28;20206;-88
2023/12/02 03:12:26;;;;;;;5.13;4.07;;;;;;;;;;5112676;28;20225;-87
2023/12/02 03:14:55;;;;;;;8.63;5.03;;;;;;;;;;5115881;28;20226;-87
2023/12/02 03:17:22;;;;;;;5.70;4.80;;;;;;;;;;5115183;28;20222;-87
2023/12/02 03:19:49;;;;;;;5.33;4.83;;;;;;;;;;5115820;28;20252;-87
2023/12/02 03:22:16;;;;;;;7.60;4.50;;;;;;;;;;5114547;28;20259;-88
2023/12/02 03:24:44;;;;;;;5.43;4.93;;;;;;;;;;5115490;28;20203;-88
2023/12/02 03:27:11;;;;;;;6.43;4.47;;;;;;;;;;5113477;28;20700;-88
2023/12/02 03:29:38;;;;;;;5.17;4.67;;;;;;;;;;5115711;28;20212;-88
2023/12/02 03:32:07;;;;;;;5.80;4.33;;;;;;;;;;5114885;28;20245;-87
2023/12/02 03:34:34;;;;;;;5.10;4.63;;;;;;;;;;5115734;28;20207;-87
2023/12/02 03:37:01;;;;;;;5.73;5.10;;;;;;;;;;5114936;28;20245;-88
2023/12/02 03:39:28;;;;;;;6.33;4.27;;;;;;;;;;5115112;28;20297;-88
2023/12/02 03:41:55;;;;;;;6.33;5.10;;;;;;;;;;5115032;28;20760;-87
2023/12/02 03:44:22;;;;;;;4.53;4.13;;;;;;;;;;5115387;28;20194;-87
2023/12/02 03:46:49;;;;;;;6.00;5.30;;;;;;;;;;5114754;28;20235;-87
2023/12/02 03:49:18;;;;;;;6.67;4.70;;;;;;;;;;5113350;28;20217;-87
2023/12/02 03:51:45;;;;;;;8.00;4.83;;;;;;;;;;5113493;28;20248;-87
2023/12/02 03:54:12;;;;;;;7.27;4.50;;;;;;;;;;5113914;28;20264;-87
2023/12/02 03:56:39;;;;;;;5.80;4.80;;;;;;;;;;5113305;28;20235;-87
2023/12/02 03:59:06;;;;;;;5.00;4.60;;;;;;;;;;5102530;28;20240;-87
2023/12/02 04:01:33;;;;;;;4.87;4.47;;;;;;;;;;5113356;28;20229;-87
2023/12/02 04:04:00;;;;;;;6.40;5.00;;;;;;;;;;5109223;28;20198;-87
2023/12/02 04:06:29;;;;;;;5.77;4.93;;;;;;;;;;5112809;28;20244;-87
2023/12/02 04:08:56;;;;;;;6.97;4.97;;;;;;;;;;5113534;28;20243;-87
2023/12/02 04:11:23;;;;;;;6.53;4.53;;;;;;;;;;5110813;28;20246;-87
2023/12/02 04:13:50;;;;;;;5.67;4.93;;;;;;;;;;5112951;28;20202;-87
2023/12/02 04:16:17;;;;;;;6.87;4.63;;;;;;;;;;5113065;28;20634;-87
2023/12/02 04:18:44;;;;;;;5.50;4.93;;;;;;;;;;5113299;28;20203;-87
2023/12/02 04:21:11;;;;;;;5.43;4.93;;;;;;;;;;5112908;28;20270;-87
2023/12/02 04:23:39;;;;;;;4.80;4.03;;;;;;;;;;5113291;28;20225;-88
2023/12/02 04:26:07;;;;;;;5.37;4.77;;;;;;;;;;5112605;28;20624;-87
2023/12/02 04:28:34;;;;;;;4.87;4.43;;;;;;;;;;5113229;28;20205;-87
2023/12/02 04:31:02;;;;;;;8.43;4.77;;;;;;;;;;5112765;28;20233;-87
2023/12/02 04:33:29;;;;;;;4.63;4.20;;;;;;;;;;5113285;28;20205;-88
2023/12/02 04:35:56;;;;;;;5.30;4.80;;;;;;;;;;5112546;28;20262;-87
2023/12/02 04:38:23;;;;;;;5.97;4.80;;;;;;;;;;5113227;28;20205;-87
2023/12/02 04:40:51;;;;;;;5.43;4.93;;;;;;;;;;5102606;28;20730;-86
2023/12/02 04:43:18;;;;;;;5.23;4.73;;;;;;;;;;5112877;28;20208;-87
2023/12/02 04:45:45;;;;;;;5.77;4.40;;;;;;;;;;5112690;28;20302;-87
2023/12/02 04:48:12;;;;;;;5.18;4.53;;;;;;;;;;5076577;28;1036179;-86
2023/12/02 04:50:40;;;;;;;5.37;4.17;;;;;;;;;;5112990;28;20234;-86
2023/12/02 04:53:08;;;;;;;5.33;4.83;;;;;;;;;;5113933;28;20269;-86
2023/12/02 04:55:36;;;;;;;6.90;4.87;;;;;;;;;;5113312;28;20763;-86
2023/12/02 04:58:04;;;;;;;4.87;4.47;;;;;;;;;;5113859;28;20237;-86
2023/12/02 05:00:32;;;;;;;4.97;4.37;;;;;;;;;;5113203;28;20237;-87
2023/12/02 05:03:00;;;;;;;4.40;4.00;;;;;;;;;;5113882;28;20284;-87
2023/12/02 05:05:27;;;;;;;6.47;4.97;;;;;;;;;;5113496;28;20242;-86
2023/12/02 05:07:54;;;;;;;5.40;4.90;;;;;;;;;;5113361;28;20706;-86
2023/12/02 05:10:21;;;;;;;5.13;4.63;;;;;;;;;;5112767;28;20202;-87
2023/12/02 05:12:48;;;;;;;5.00;4.23;;;;;;;;;;5113556;28;20272;-86
2023/12/02 05:15:17;;;;;;;4.63;4.20;;;;;;;;;;5112825;28;20226;-86
2023/12/02 05:17:45;;;;;;;4.73;4.30;;;;;;;;;;5092140;28;20219;-87
2023/12/02 05:20:13;;;;;;;5.07;4.20;;;;;;;;;;5092215;28;20204;-86
2023/12/02 05:22:40;;;;;;;4.83;4.23;;;;;;;;;;5113165;28;20431;-86
2023/12/02 05:25:07;;;;;;;4.27;3.87;;;;;;;;;;5112674;28;20209;-85
2023/12/02 05:27:34;;;;;;;6.90;4.20;;;;;;;;;;5113136;28;20244;-87
2023/12/02 05:30:01;;;;;;;4.27;3.83;;;;;;;;;;5099540;28;20213;-87
2023/12/02 05:32:30;;;;;;;5.03;4.63;;;;;;;;;;5112462;28;20735;-87
2023/12/02 05:34:58;;;;;;;4.30;3.90;;;;;;;;;;5114558;28;20755;-87
2023/12/02 05:37:25;;;;;;;4.67;4.07;;;;;;;;;;5097383;28;20233;-87
2023/12/02 05:39:52;;;;;;;3.77;3.43;;;;;;;;;;5098228;28;20205;-87
2023/12/02 05:42:19;;;;;;;4.17;3.57;;;;;;;;;;5112229;28;20229;-87
2023/12/02 05:44:46;;;;;;;3.67;3.37;;;;;;;;;;5113663;28;20668;-86
2023/12/02 05:47:13;;;;;;;5.07;3.57;;;;;;;;;;5101615;28;20233;-86
2023/12/02 05:49:44;;;;;;;4.57;4.17;;;;;;;;;;5113708;28;20593;-87
2023/12/02 05:52:11;;;;;;;4.40;4.00;;;;;;;;;;5112671;28;20229;-86
2023/12/02 05:54:38;;;;;;;4.47;4.13;;;;;;;;;;5112775;28;20271;-87
2023/12/02 05:57:05;;;;;;;4.67;4.17;;;;;;;;;;5111599;28;20241;-86
2023/12/02 05:59:32;;;;;;;4.60;4.20;;;;;;;;;;5112188;28;20225;-87
2023/12/02 06:01:59;;;;;;;5.93;4.43;;;;;;;;;;5111737;28;20235;-87
2023/12/02 06:04:26;;;;;;;4.60;4.20;;;;;;;;;;5106064;28;20206;-87
2023/12/02 06:06:55;;;;;;;4.20;3.67;;;;;;;;;;5111885;28;20778;-87
2023/12/02 06:09:22;;;;;;;4.70;4.27;;;;;;;;;;5112089;28;20202;-87
2023/12/02 06:11:49;;;;;;;3.73;3.33;;;;;;;;;;5112189;28;20233;-87
2023/12/02 06:14:16;;;;;;;4.43;4.03;;;;;;;;;;5112116;28;20219;-88
2023/12/02 06:16:43;;;;;;;4.20;3.77;;;;;;;;;;5111842;28;20266;-86
2023/12/02 06:19:11;;;;;;;4.80;4.30;;;;;;;;;;5112417;28;20216;-86
2023/12/02 06:21:38;;;;;;;4.63;4.23;;;;;;;;;;5103490;28;20232;-86
2023/12/02 06:24:07;;;;;;;3.90;3.50;;;;;;;;;;5091970;28;20271;-87
2023/12/02 06:26:34;;;;;;;4.43;4.03;;;;;;;;;;5090956;28;20256;-86
2023/12/02 06:29:01;;;;;;;4.83;4.30;;;;;;;;;;5092010;28;20224;-87
2023/12/02 06:31:28;;;;;;;5.13;4.03;;;;;;;;;;5091139;28;20720;-87
2023/12/02 06:33:55;;;;;;;5.17;4.30;;;;;;;;;;5091657;28;20646;-87
2023/12/02 06:36:23;;;;;;;4.23;3.83;;;;;;;;;;5091069;28;20243;-86
2023/12/02 06:38:50;;;;;;;4.30;3.60;;;;;;;;;;5092982;28;20602;-86
2023/12/02 06:41:19;;;;;;;4.73;3.90;;;;;;;;;;5111810;28;20257;-87
2023/12/02 06:43:46;;;;;;;4.57;4.17;;;;;;;;;;5101106;28;20237;-82
2023/12/02 06:46:20;;;;;;;4.17;3.73;;;;;;;;;;5091024;28;20247;-82
2023/12/02 06:48:47;;;;;;;4.03;3.73;;;;;;;;;;5091108;28;20234;-82
2023/12/02 06:51:14;;;;;;;3.80;3.47;;;;;;;;;;5091523;28;20241;-83
2023/12/02 06:53:41;;;;;;;4.60;4.20;;;;;;;;;;5091249;28;20207;-83
2023/12/02 06:56:18;;;;;;;4.00;3.70;;;;;;;;;;5090760;28;20290;-82
2023/12/02 06:58:46;;;;;;;3.50;3.20;;;;;;;;;;5109897;28;20240;-83
2023/12/02 07:01:23;;;;;;;5.63;4.33;;;;;;;;;;5111912;28;20258;-83
2023/12/02 07:03:50;;;;;;;3.77;3.47;;;;;;;;;;5111701;28;20197;-82
2023/12/02 07:06:17;;;;;;;4.20;3.80;;;;;;;;;;5111020;28;20272;-82
2023/12/02 07:08:44;;;;;;;5.23;4.57;;;;;;;;;;5111332;28;20256;-82
2023/12/02 07:11:11;;;;;;;3.60;3.30;;;;;;;;;;5111267;28;20250;-82
2023/12/02 07:13:39;;;;;;;4.50;4.10;;;;;;;;;;5111662;28;20218;-82
2023/12/02 07:16:06;;;;;;;4.50;4.10;;;;;;;;;;5110988;28;20614;-82
2023/12/02 07:18:33;;;;;;;3.87;3.30;;;;;;;;;;5103097;28;20203;-82
2023/12/02 07:21:01;;;;;;;4.87;4.10;;;;;;;;;;5090857;28;20235;-82
2023/12/02 07:23:28;;;;;;;3.60;3.30;;;;;;;;;;5091218;28;20211;-82
2023/12/02 07:25:55;;;;;;;3.50;3.23;;;;;;;;;;5090552;28;20243;-82
2023/12/02 07:28:23;;;;;;;3.93;3.63;;;;;;;;;;5091774;28;20226;-83
2023/12/02 07:30:51;;;;;;;4.37;4.03;;;;;;;;;;5094339;28;20221;-83
2023/12/02 07:33:19;;;;;;;4.13;3.83;;;;;;;;;;5111636;28;20225;-83
2023/12/02 07:35:46;;;;;;;3.53;3.33;;;;;;;;;;5111007;28;20237;-82
2023/12/02 07:38:13;;;;;;;3.40;3.10;;;;;;;;;;5099952;28;20209;-83
2023/12/02 07:40:40;;;;;;;3.57;3.27;;;;;;;;;;5096658;28;20644;-81
2023/12/02 07:43:08;;;;;;;4.00;3.60;;;;;;;;;;5114927;28;20252;-81
2023/12/02 07:45:36;;;;;;;5.53;3.87;;;;;;;;;;5114212;28;20312;-82
2023/12/02 07:48:04;;;;;;;3.53;3.23;;;;;;;;;;5114824;28;20220;-82
2023/12/02 07:50:31;;;;;;;3.60;3.30;;;;;;;;;;5114265;28;20753;-81
2023/12/02 07:52:58;;;;;;;4.07;2.93;;;;;;;;;;5111899;28;20199;-81
2023/12/02 07:55:25;;;;;;;3.20;3.00;;;;;;;;;;5114104;28;20856;-82
2023/12/02 07:57:53;;;;;;;4.00;3.70;;;;;;;;;;5114580;28;20205;-81
2023/12/02 08:00:20;;;;;;;3.10;2.90;;;;;;;;;;5111500;28;20196;-81
2023/12/02 08:02:47;;;;;;;2.70;2.60;;;;;;;;;;5114830;28;20571;-82
2023/12/02 08:05:16;;;;;;;3.53;3.33;;;;;;;;;;5113690;28;20201;-81
2023/12/02 08:07:45;;;;;;;3.47;3.17;;;;;;;;;;5114244;28;20234;-82
2023/12/02 08:10:12;;;;;;;3.00;2.80;;;;;;;;;;5113766;28;20197;-81
2023/12/02 08:12:39;;;;;;;3.17;2.97;;;;;;;;;;5114389;28;20617;-81
2023/12/02 08:15:07;;;;;;;5.30;2.90;;;;;;;;;;5113624;28;20202;-81
2023/12/02 08:17:34;;;;;;;3.27;3.07;;;;;;;;;;5114486;28;20206;-82
2023/12/02 08:20:01;;;;;;;3.43;3.23;;;;;;;;;;5114018;28;20212;-82
2023/12/02 08:22:29;;;;;;;3.20;2.97;;;;;;;;;;5114090;28;20222;-82
2023/12/02 08:24:56;;;;;;;3.47;3.27;;;;;;;;;;5113904;28;20217;-82
2023/12/02 08:27:24;;;;;;;3.80;3.50;;;;;;;;;;5106600;28;20227;-83
2023/12/02 08:29:52;;;;;;;3.83;3.63;;;;;;;;;;5093647;28;20288;-85
2023/12/02 08:32:19;;;;;;;3.83;2.97;;;;;;;;;;5093385;28;20248;-82
2023/12/02 08:34:46;;;;;;;3.07;2.87;;;;;;;;;;5093470;28;20226;-82
2023/12/02 08:37:13;;;;;;;3.10;2.87;;;;;;;;;;5093009;28;20260;-82
2023/12/02 08:39:41;;;;;;;3.63;3.33;;;;;;;;;;5093694;28;20203;-83
2023/12/02 08:42:11;;;;;;;2.67;2.57;;;;;;;;;;5093052;28;20316;-82
2023/12/02 08:44:39;;;;;;;3.47;3.27;;;;;;;;;;5093803;28;20208;-83
2023/12/02 08:47:06;;;;;;;2.67;2.47;;;;;;;;;;5092727;28;20253;-81
2023/12/02 08:49:33;;;;;;;2.97;2.80;;;;;;;;;;5093589;28;20226;-82
2023/12/02 08:52:01;;;;;;;3.60;3.40;;;;;;;;;;5091709;28;20231;-83
2023/12/02 08:54:28;;;;;;;2.67;2.57;;;;;;;;;;5098022;28;20249;-82
2023/12/02 08:56:59;;;;;;;3.70;3.50;;;;;;;;;;5112983;28;20326;-82
2023/12/02 08:59:26;;;;;;;2.77;2.57;;;;;;;;;;5114185;28;20229;-81
2023/12/02 09:01:53;;;;;;;3.47;3.23;;;;;;;;;;5113377;28;20723;-82
2023/12/02 09:04:20;;;;;;;3.83;3.57;;;;;;;;;;5093818;28;20205;-81
2023/12/02 09:06:48;;;;;;;4.27;3.90;;;;;;;;;;5105854;28;20236;-82
2023/12/02 09:09:15;;;;;;;3.40;3.17;;;;;;;;;;5110766;28;20226;-80
2023/12/02 09:11:42;;;;;;;4.10;3.70;;;;;;;;;;5096322;28;20230;-78
2023/12/02 09:14:11;;;;;;;4.47;3.57;;;;;;;;;;5093334;28;20208;-80
2023/12/02 09:16:46;;;;;;;4.93;4.50;;;;;;;;;;5098190;28;20237;-80
2023/12/02 09:19:26;;;;;;;5.17;4.27;;;;;;;;;;5113224;28;20236;-80
2023/12/02 09:21:53;;;;;;;4.80;4.30;;;;;;;;;;5111771;28;20283;-81
2023/12/02 09:24:33;;;;;;;6.10;5.30;;;;;;;;;;5113165;28;20198;-80
2023/12/02 09:27:00;;;;;;;5.50;4.83;;;;;;;;;;5112537;27;20328;-80
2023/12/02 09:29:33;;;;;;;4.37;3.97;;;;;;;;;;5112818;28;20599;-81
2023/12/02 09:32:09;;;;;;;8.20;4.17;;;;;;;;;;5112249;28;20354;-81
2023/12/02 09:34:50;;;;;;;4.80;4.40;;;;;;;;;;5113040;28;20203;-82
2023/12/02 09:37:28;;;;;;;4.90;4.40;;;;;;;;;;5112033;28;20238;-80
2023/12/02 09:40:11;;;;;;;4.83;4.43;;;;;;;;;;5112605;28;20206;-83
2023/12/02 09:42:39;;;;;;;4.33;4.00;;;;;;;;;;5113112;27;20277;-80
2023/12/02 09:45:07;;;;;;;4.43;4.13;;;;;;;;;;5102886;28;20218;-81
2023/12/02 09:47:39;;;;;;;4.57;4.23;;;;;;;;;;5111953;28;20219;-82
2023/12/02 09:50:09;;;;;;;5.53;5.03;;;;;;;;;;5109957;28;20244;-82
2023/12/02 09:52:45;;;;;;;4.47;4.17;;;;;;;;;;5112039;28;20242;-81
2023/12/02 09:55:17;;;;;;;4.00;3.60;;;;;;;;;;5111464;28;20785;-82
2023/12/02 09:57:48;;;;;;;8.00;5.73;;;;;;;;;;5112911;28;20206;-82
2023/12/02 10:00:21;;;;;;;4.13;3.77;;;;;;;;;;5118086;28;20198;-81
2023/12/02 10:02:58;;;;;;;4.97;3.90;;;;;;;;;;5115359;28;20582;-81
2023/12/02 10:05:25;;;;;;;4.50;4.10;;;;;;;;;;5113551;28;20311;-82
2023/12/02 10:07:55;;;;;;;5.03;4.40;;;;;;;;;;5111329;28;20271;-82
2023/12/02 10:10:25;;;;;;;4.50;4.10;;;;;;;;;;5110877;28;20203;-82
2023/12/02 10:13:00;;;;;;;4.20;3.90;;;;;;;;;;5111232;28;20209;-82
2023/12/02 10:15:29;;;;;;;4.10;3.80;;;;;;;;;;5111442;28;20281;-82
2023/12/02 10:17:57;;;;;;;4.27;3.87;;;;;;;;;;5109343;28;20209;-82
2023/12/02 10:20:27;;;;;;;4.43;4.03;;;;;;;;;;5110343;28;20576;-82
2023/12/02 10:22:56;;;;;;;4.03;3.70;;;;;;;;;;5110906;28;20264;-82
2023/12/02 10:25:33;;;;;;;4.53;4.20;;;;;;;;;;5111132;28;20643;-82
2023/12/02 10:28:04;;;;;;;4.17;3.83;;;;;;;;;;5111408;28;20208;-82
2023/12/02 10:30:35;;;;;;;4.00;3.70;;;;;;;;;;5110741;28;20235;-82
2023/12/02 10:33:06;;;;;;;3.63;3.40;;;;;;;;;;5110770;28;20296;-82
2023/12/02 10:35:36;;;;;;;4.43;4.03;;;;;;;;;;5110883;28;20319;-82
2023/12/02 10:38:05;;;;;;;4.40;4.00;;;;;;;;;;5111178;28;20670;-82
2023/12/02 10:40:33;;;;;;;4.37;3.97;;;;;;;;;;5110937;28;20237;-82
2023/12/02 10:43:02;;;;;;;4.17;3.80;;;;;;;;;;5110761;28;20209;-82
2023/12/02 10:45:31;;;;;;;3.80;3.50;;;;;;;;;;5110706;28;20579;-83
2023/12/02 10:48:00;;;;;;;3.73;3.40;;;;;;;;;;5108725;28;20300;-83
2023/12/02 10:50:28;;;;;;;3.90;3.50;;;;;;;;;;5110487;28;20321;-82
2023/12/02 10:52:58;;;;;;;4.83;4.03;;;;;;;;;;5110652;28;20211;-82
2023/12/02 10:55:27;;;;;;;3.90;3.60;;;;;;;;;;5110628;28;20679;-82
2023/12/02 10:57:54;;;;;;;4.23;3.80;;;;;;;;;;5110573;28;20211;-82
2023/12/02 11:00:22;;;;;;;4.53;4.07;;;;;;;;;;5110625;28;20194;-82
2023/12/02 11:02:52;;;;;;;3.83;3.53;;;;;;;;;;5110809;28;20208;-82
2023/12/02 11:05:23;;;;;;;3.97;3.67;;;;;;;;;;5110123;28;20751;-82
2023/12/02 11:07:53;;;;;;;3.87;3.53;;;;;;;;;;5110965;28;20618;-82
2023/12/02 11:10:26;;;;;;;5.77;3.67;;;;;;;;;;5109821;28;20238;-82
2023/12/02 11:12:55;;;;;;;3.67;3.30;;;;;;;;;;5110693;28;20628;-83
2023/12/02 11:15:22;;;;;;;3.83;3.53;;;;;;;;;;5112477;28;20266;-82
2023/12/02 11:17:53;;;;;;;3.77;3.47;;;;;;;;;;5110843;28;20227;-83
2023/12/02 11:20:23;;;;;;;3.83;3.43;;;;;;;;;;5114433;28;20198;-82
2023/12/02 11:23:04;;;;;;;3.43;3.13;;;;;;;;;;5114214;28;20748;-83
2023/12/02 11:25:37;;;;;;;3.83;3.50;;;;;;;;;;5114148;28;20242;-82
2023/12/02 11:28:06;;;;;;;4.70;3.43;;;;;;;;;;5114599;28;20618;-83
2023/12/02 11:30:43;;;;;;;4.93;3.97;;;;;;;;;;5113842;28;20641;-83
2023/12/02 11:33:16;;;;;;;9.97;4.40;;;;;;;;;;5114290;28;20589;-82
2023/12/02 11:35:48;;;;;;;8.13;3.90;;;;;;;;;;5109124;28;20272;-83
2023/12/02 11:38:18;;;;;;;7.63;4.00;;;;;;;;;;5106623;28;20202;-83
2023/12/02 11:40:52;;;;;;;4.50;4.10;;;;;;;;;;5113758;28;20587;-82
2023/12/02 11:43:30;;;;;;;4.67;3.80;;;;;;;;;;5105040;28;20199;-83
2023/12/02 11:45:58;;;;;;;3.70;3.50;;;;;;;;;;5104671;28;20251;-82
2023/12/02 11:48:29;;;;;;;8.93;3.37;;;;;;;;;;5110677;28;20217;-84
2023/12/02 11:51:15;;;;;;;3.60;3.30;;;;;;;;;;5114082;28;20238;-84
2023/12/02 11:53:50;;;;;;;3.80;3.50;;;;;;;;;;5114666;28;20214;-85
2023/12/02 11:56:19;;;;;;;3.97;3.63;;;;;;;;;;5106154;28;20633;-84
2023/12/02 11:58:53;;;;;;;3.53;3.20;;;;;;;;;;5114628;28;20232;-84
2023/12/02 12:01:28;;;;;;;4.67;3.67;;;;;;;;;;5107045;28;20238;-84
2023/12/02 12:04:02;;;;;;;4.07;3.77;;;;;;;;;;5106272;28;20308;-84
2023/12/02 12:06:41;;;;;;;3.63;3.33;;;;;;;;;;5113739;28;20753;-82
2023/12/02 12:09:14;;;;;;;3.30;3.10;;;;;;;;;;5114217;28;20247;-84
2023/12/02 12:11:42;;;;;;;3.80;3.50;;;;;;;;;;5113912;28;20241;-83
2023/12/02 12:14:09;;;;;;;3.57;2.90;;;;;;;;;;5107064;28;20676;-83
2023/12/02 12:16:36;;;;;;;3.50;3.20;;;;;;;;;;5108038;28;20261;-83
2023/12/02 12:19:04;;;;;;;3.57;3.37;;;;;;;;;;5102835;28;20207;-83
2023/12/02 12:21:31;;;;;;;4.57;3.33;;;;;;;;;;5093106;28;20259;-83
2023/12/02 12:23:58;;;;;;;3.70;3.40;;;;;;;;;;5102928;28;20207;-83
2023/12/02 12:26:26;;;;;;;3.90;3.57;;;;;;;;;;5108626;28;20231;-83
2023/12/02 12:28:53;;;;;;;4.23;3.80;;;;;;;;;;5100193;28;20211;-84
2023/12/02 12:31:20;;;;;;;4.93;3.20;;;;;;;;;;5104919;28;20309;-83
2023/12/02 12:33:49;;;;;;;3.33;3.13;;;;;;;;;;5105252;28;20591;-84
2023/12/02 12:36:23;;;;;;;3.60;3.30;;;;;;;;;;5104687;28;20708;-84
2023/12/02 12:38:51;;;;;;;5.30;3.70;;;;;;;;;;5105014;28;20298;-84
2023/12/02 12:41:21;;;;;;;4.70;3.90;;;;;;;;;;5096480;28;20239;-84
2023/12/02 12:43:50;;;;;;;3.93;3.63;;;;;;;;;;5111506;28;20207;-84
2023/12/02 12:46:17;;;;;;;4.77;3.73;;;;;;;;;;5102307;28;20701;-84
2023/12/02 12:48:48;;;;;;;5.57;4.20;;;;;;;;;;5101244;28;20224;-84
2023/12/02 12:51:18;;;;;;;5.43;4.17;;;;;;;;;;5094302;28;20216;-84
2023/12/02 12:53:52;;;;;;;4.50;4.00;;;;;;;;;;5105020;28;20679;-83
2023/12/02 12:56:22;;;;;;;4.63;4.23;;;;;;;;;;5103813;28;20233;-82
2023/12/02 12:58:59;;;;;;;4.47;4.07;;;;;;;;;;5113073;28;20204;-83
2023/12/02 13:01:28;;;;;;;3.83;3.37;;;;;;;;;;5107577;28;20231;-82
2023/12/02 13:04:00;;;;;;;4.73;4.30;;;;;;;;;;5109988;28;20211;-82
2023/12/02 13:06:33;;;;;;;4.53;4.07;;;;;;;;;;5098972;28;20686;-82
2023/12/02 13:09:05;;;;;;;3.90;3.70;;;;;;;;;;5102026;28;20214;-82
2023/12/02 13:11:33;;;;;;;4.70;4.07;;;;;;;;;;5111587;28;20320;-82
2023/12/02 13:14:05;;;;;;;3.97;3.60;;;;;;;;;;5094663;28;20208;-82
2023/12/02 13:16:32;;;;;;;3.97;3.67;;;;;;;;;;5105728;28;21152;-82
2023/12/02 13:19:01;;;;;;;5.83;4.70;;;;;;;;;;5102808;28;20208;-82
2023/12/02 13:21:28;;;;;;;3.90;3.50;;;;;;;;;;5099981;28;20228;-83
2023/12/02 13:23:58;;;;;;;3.50;3.20;;;;;;;;;;5101253;28;20577;-83
2023/12/02 13:26:27;;;;;;;3.60;3.30;;;;;;;;;;5111708;28;20601;-83
2023/12/02 13:28:54;;;;;;;4.13;3.73;;;;;;;;;;5112037;28;20212;-84
2023/12/02 13:31:23;;;;;;;4.30;3.70;;;;;;;;;;5099755;28;20231;-84
2023/12/02 13:33:51;;;;;;;3.40;3.10;;;;;;;;;;5100448;28;20235;-84
2023/12/02 13:36:23;;;;;;;2.97;2.77;;;;;;;;;;5102915;28;20599;-84
2023/12/02 13:38:57;;;;;;;3.70;3.40;;;;;;;;;;5111814;28;20252;-84
2023/12/02 13:41:31;;;;;;;3.60;3.30;;;;;;;;;;5091477;28;20224;-83
2023/12/02 13:44:01;;;;;;;4.90;3.77;;;;;;;;;;5107044;28;20216;-84
2023/12/02 13:46:33;;;;;;;4.37;3.97;;;;;;;;;;5102939;28;20242;-83
2023/12/02 13:49:03;;;;;;;4.47;4.07;;;;;;;;;;5105113;28;20218;-83
2023/12/02 13:51:31;;;;;;;3.53;3.23;;;;;;;;;;5107287;28;20295;-85
2023/12/02 13:54:06;;;;;;;3.77;3.47;;;;;;;;;;5110836;28;20673;-83
2023/12/02 13:56:38;;;;;;;4.27;3.87;;;;;;;;;;5104205;28;20262;-82
2023/12/02 13:59:11;;;;;;;3.93;3.63;;;;;;;;;;5111648;28;20669;-82
2023/12/02 14:01:43;;;;;;;5.67;4.30;;;;;;;;;;5110439;28;20235;-82
2023/12/02 14:04:26;;;;;;;3.77;3.47;;;;;;;;;;5112018;28;20214;-82
2023/12/02 14:07:01;;;;;;;3.60;3.30;;;;;;;;;;5111183;28;20246;-83
2023/12/02 14:09:28;;;;;;;4.37;3.63;;;;;;;;;;5108853;28;20199;-83
2023/12/02 14:12:06;;;;;;;4.27;3.90;;;;;;;;;;5100122;28;20647;-82
2023/12/02 14:14:44;;;;;;;3.83;3.57;;;;;;;;;;5100968;28;20256;-82
2023/12/02 14:17:20;;;;;;;4.23;3.80;;;;;;;;;;5111212;28;20239;-82
2023/12/02 14:19:56;;;;;;;4.00;3.70;;;;;;;;;;5111798;28;20290;-82
2023/12/02 14:22:32;;;;;;;4.03;3.73;;;;;;;;;;5103490;28;20237;-82
2023/12/02 14:25:23;;;;;;;3.73;3.43;;;;;;;;;;5112399;28;20275;-81
2023/12/02 14:28:05;;;;;;;4.57;3.97;;;;;;;;;;5111974;28;20697;-82
2023/12/02 14:30:42;;;;;;;4.00;3.60;;;;;;;;;;5111395;28;20335;-82
2023/12/02 14:33:21;;;;;;;4.30;4.00;;;;;;;;;;5112620;28;20207;-81
2023/12/02 14:35:56;;;;;;;5.80;3.70;;;;;;;;;;5112775;28;20267;-81
2023/12/02 14:38:53;;;;;;;4.47;3.50;;;;;;;;;;5112090;28;20221;-82
2023/12/02 14:41:26;;;;;;;6.50;4.63;;;;;;;;;;5027944;28;20236;-82
2023/12/02 14:44:01;;;;;;;6.47;4.10;;;;;;;;;;5092301;28;20268;-84
2023/12/02 14:46:28;;;;;;;6.63;4.47;;;;;;;;;;5103147;28;20235;-83
2023/12/02 14:48:57;;;;;;;4.20;3.67;;;;;;;;;;5112545;28;20247;-83
2023/12/02 14:51:24;;;;;;;5.47;3.93;;;;;;;;;;5107187;28;20276;-83
2023/12/02 14:53:56;;;;;;;4.83;4.37;;;;;;;;;;5115666;28;20613;-83